Time;durP1;ratioP1;P1;durP2;ratioP2;P2;SDS_P1;SDS_P2;PMS_P1;PMS_P2;Temp;Humidity;BMP_temperature;BMP_pressure;BME280_temperature;BME280_humidity;BME280_pressure;Samples;Min_cycle;Max_cycle;Signal;HPM_P1;HPM_P2
2022/09/16 00:02:21;;;;;;;2.40;1.02;;;26.60;99.90;;;;;;4937214;29;20483;-54
2022/09/16 00:04:46;;;;;;;5.38;1.27;;;26.60;99.90;;;;;;4953466;28;20402;-56
2022/09/16 00:07:12;;;;;;;2.83;0.90;;;26.60;99.90;;;;;;4953220;28;20035;-57
2022/09/16 00:09:38;;;;;;;2.45;1.23;;;26.60;99.90;;;;;;4953182;28;20028;-56
2022/09/16 00:12:05;;;;;;;2.38;1.00;;;26.60;99.90;;;;;;4953332;28;20039;-56
2022/09/16 00:14:31;;;;;;;11.30;1.20;;;26.60;99.90;;;;;;4951059;28;20308;-56
2022/09/16 00:16:57;;;;;;;6.63;1.23;;;26.60;99.90;;;;;;4940331;28;20035;-54
2022/09/16 00:19:22;;;;;;;5.43;1.40;;;26.60;99.90;;;;;;4934544;28;20194;-54
2022/09/16 00:21:48;;;;;;;5.13;1.55;;;26.50;99.90;;;;;;4941198;28;20089;-54
2022/09/16 00:24:15;;;;;;;6.57;1.20;;;26.50;99.90;;;;;;4940011;28;20035;-54
2022/09/16 00:26:44;;;;;;;6.20;1.40;;;26.50;99.90;;;;;;4934744;28;20106;-54
2022/09/16 00:29:10;;;;;;;6.57;1.45;;;26.40;99.90;;;;;;4941181;28;20048;-54
2022/09/16 00:31:36;;;;;;;4.35;1.15;;;26.40;99.90;;;;;;4949070;28;20058;-55
2022/09/16 00:34:02;;;;;;;3.17;1.20;;;26.40;99.90;;;;;;4939065;28;20212;-55
2022/09/16 00:36:29;;;;;;;5.90;1.35;;;26.40;99.90;;;;;;4934334;28;20055;-56
2022/09/16 00:38:55;;;;;;;7.78;1.30;;;26.40;99.90;;;;;;4936870;28;20036;-55
2022/09/16 00:41:26;;;;;;;3.78;1.52;;;26.40;99.90;;;;;;4934266;28;20039;-56
2022/09/16 00:44:01;;;;;;;4.57;1.55;;;26.40;99.90;;;;;;4934238;28;20032;-57
2022/09/16 00:46:33;;;;;;;6.00;1.50;;;26.40;99.90;;;;;;4934143;29;20024;-57
2022/09/16 00:49:09;;;;;;;4.30;1.40;;;26.40;99.90;;;;;;4942947;28;20019;-54
2022/09/16 00:51:37;;;;;;;3.40;1.00;;;26.40;99.90;;;;;;4949220;29;20463;-54
2022/09/16 00:54:04;;;;;;;4.55;1.33;;;26.40;99.90;;;;;;4950830;29;20144;-55
2022/09/16 00:56:36;;;;;;;6.28;1.63;;;26.40;99.90;;;;;;4942177;28;20027;-57
2022/09/16 00:59:07;;;;;;;4.90;1.30;;;26.30;99.90;;;;;;4940946;28;20048;-57
2022/09/16 01:01:34;;;;;;;8.27;1.35;;;26.30;99.90;;;;;;4933611;28;20044;-59
2022/09/16 01:04:05;;;;;;;8.52;1.65;;;26.30;99.90;;;;;;4950929;29;20110;-59
2022/09/16 01:06:34;;;;;;;3.67;1.38;;;26.30;99.90;;;;;;4951855;28;20039;-58
2022/09/16 01:09:01;;;;;;;7.05;1.30;;;26.30;99.90;;;;;;4942748;28;20056;-62
2022/09/16 01:11:26;;;;;;;5.82;1.40;;;26.30;99.90;;;;;;4933755;28;20042;-54
2022/09/16 01:13:53;;;;;;;3.78;1.52;;;26.30;99.90;;;;;;4940741;28;20035;-55
2022/09/16 01:16:22;;;;;;;2.60;1.10;;;26.30;99.90;;;;;;4947227;28;20023;-55
2022/09/16 01:18:52;;;;;;;5.72;1.25;;;26.20;99.90;;;;;;4933877;28;20028;-56
2022/09/16 01:21:44;;;;;;;5.60;1.95;;;26.20;99.90;;;;;;4947871;28;20046;-56
2022/09/16 01:24:51;;;;;;;3.55;1.48;;;26.20;99.90;;;;;;4933923;28;20048;-57
2022/09/16 01:27:39;;;;;;;7.93;1.52;;;26.20;99.90;;;;;;4932301;28;20486;-54
2022/09/16 01:30:20;;;;;;;3.90;1.40;;;26.20;99.90;;;;;;4953807;28;20031;-54
2022/09/16 01:33:03;;;;;;;2.40;1.20;;;26.10;99.90;;;;;;4955178;28;20079;-57
2022/09/16 01:35:37;;;;;;;5.03;1.70;;;26.10;99.90;;;;;;4937797;28;20413;-56
2022/09/16 01:38:27;;;;;;;4.50;1.50;;;26.10;99.90;;;;;;4936987;28;20468;-56
2022/09/16 01:41:30;;;;;;;4.60;1.80;;;26.10;99.90;;;;;;4940273;28;20110;-53
2022/09/16 01:43:59;;;;;;;3.83;1.60;;;26.10;99.90;;;;;;4937432;28;20032;-55
2022/09/16 01:46:55;;;;;;;4.93;1.58;;;26.10;99.90;;;;;;4936990;28;20516;-54
2022/09/16 01:49:45;;;;;;;6.43;1.70;;;26.00;99.90;;;;;;4937244;28;20034;-56
2022/09/16 01:52:27;;;;;;;4.13;1.42;;;26.00;99.90;;;;;;4937549;28;20035;-53
2022/09/16 01:55:03;;;;;;;4.47;1.70;;;26.00;99.90;;;;;;4947499;28;20024;-54
2022/09/16 01:57:47;;;;;;;5.50;1.50;;;26.00;99.90;;;;;;4940234;28;20027;-54
2022/09/16 02:00:14;;;;;;;5.97;1.75;;;25.90;99.90;;;;;;4945165;28;20056;-55
2022/09/16 02:02:46;;;;;;;3.35;1.40;;;25.90;99.90;;;;;;4937452;28;20019;-55
2022/09/16 02:05:17;;;;;;;6.55;2.20;;;25.90;99.90;;;;;;4947178;28;20030;-56
2022/09/16 02:07:50;;;;;;;6.13;1.33;;;25.90;99.90;;;;;;4936982;28;20026;-56
2022/09/16 02:10:27;;;;;;;4.22;1.60;;;25.90;99.90;;;;;;4935450;28;20091;-55
2022/09/16 02:13:01;;;;;;;4.95;2.13;;;25.90;99.90;;;;;;4935561;28;20038;-55
2022/09/16 02:15:30;;;;;;;3.70;1.30;;;26.00;99.90;;;;;;4936837;28;20416;-56
2022/09/16 02:18:03;;;;;;;8.07;2.10;;;26.00;99.90;;;;;;4936576;28;20028;-55
2022/09/16 02:20:34;;;;;;;5.25;1.42;;;25.90;99.90;;;;;;4936852;28;20666;-55
2022/09/16 02:23:13;;;;;;;2.88;1.48;;;25.90;99.90;;;;;;4936688;28;20399;-55
2022/09/16 02:25:41;;;;;;;2.28;1.42;;;25.90;99.90;;;;;;4936758;28;20094;-55
2022/09/16 02:28:11;;;;;;;;;;;25.90;99.90;;;;;;4937134;28;20024;-55
2022/09/16 02:30:43;;;;;;;3.97;1.40;;;25.90;99.90;;;;;;4935765;29;19907;-55
2022/09/16 02:33:12;;;;;;;4.15;1.70;;;25.90;99.90;;;;;;4935499;29;20036;-55
2022/09/16 02:35:40;;;;;;;3.47;1.48;;;25.90;99.90;;;;;;4936647;29;20028;-55
2022/09/16 02:38:18;;;;;;;3.40;1.50;;;25.80;99.90;;;;;;4936444;29;20030;-55
2022/09/16 02:40:51;;;;;;;8.13;1.67;;;25.80;99.90;;;;;;4935429;29;20102;-54
2022/09/16 02:43:18;;;;;;;7.10;1.48;;;25.80;99.90;;;;;;4936725;29;20020;-55
2022/09/16 02:45:43;;;;;;;8.45;1.98;;;25.80;99.90;;;;;;4936530;29;20530;-55
2022/09/16 02:48:23;;;;;;;4.75;1.80;;;25.80;99.90;;;;;;4936448;29;20031;-55
2022/09/16 02:51:05;;;;;;;5.72;1.65;;;25.80;99.90;;;;;;4936588;29;20114;-55
2022/09/16 02:53:54;;;;;;;7.60;1.92;;;25.80;99.90;;;;;;4936504;29;20024;-55
2022/09/16 02:56:28;;;;;;;5.70;2.33;;;25.80;99.90;;;;;;4936446;29;20051;-55
2022/09/16 02:58:54;;;;;;;9.45;2.22;;;25.80;99.90;;;;;;4936318;29;20161;-55
2022/09/16 03:01:23;;;;;;;7.40;1.83;;;25.80;99.90;;;;;;4936993;29;20085;-55
2022/09/16 03:03:49;;;;;;;9.40;1.60;;;25.80;99.90;;;;;;4935208;29;20024;-54
2022/09/16 03:06:27;;;;;;;7.68;1.98;;;25.80;99.90;;;;;;4951010;29;20034;-55
2022/09/16 03:08:59;;;;;;;3.58;1.50;;;25.70;99.90;;;;;;4936187;29;20102;-54
2022/09/16 03:11:48;;;;;;;6.40;1.60;;;25.70;99.90;;;;;;4936051;29;20032;-55
2022/09/16 03:14:38;;;;;;;3.20;1.55;;;25.70;99.90;;;;;;4936081;29;20015;-55
2022/09/16 03:17:18;;;;;;;6.63;1.67;;;25.70;99.90;;;;;;4935956;29;20028;-55
2022/09/16 03:20:07;;;;;;;4.72;1.50;;;25.70;99.90;;;;;;4935853;29;20031;-54
2022/09/16 03:22:38;;;;;;;6.07;1.73;;;25.70;99.90;;;;;;4935854;29;20031;-55
2022/09/16 03:25:32;;;;;;;2.50;1.30;;;25.70;99.90;;;;;;4935902;29;20032;-54
2022/09/16 03:28:16;;;;;;;4.38;1.65;;;25.70;99.90;;;;;;4935288;29;20036;-55
2022/09/16 03:30:51;;;;;;;3.88;1.45;;;25.70;99.90;;;;;;4935748;29;20122;-55
2022/09/16 03:33:46;;;;;;;4.00;1.60;;;25.70;99.90;;;;;;4935792;29;20031;-55
2022/09/16 03:36:18;;;;;;;5.50;2.05;;;25.70;99.90;;;;;;4935615;29;20036;-54
2022/09/16 03:38:45;;;;;;;5.35;1.67;;;25.60;99.90;;;;;;4935516;29;20052;-55
2022/09/16 03:41:12;;;;;;;4.57;1.60;;;25.60;99.90;;;;;;4935560;29;20051;-55
2022/09/16 03:43:38;;;;;;;;;;;25.60;99.90;;;;;;4935934;29;20028;-55
2022/09/16 03:46:13;;;;;;;6.85;1.73;;;25.60;99.90;;;;;;4935466;29;19913;-55
2022/09/16 03:48:39;;;;;;;4.10;1.45;;;25.60;99.90;;;;;;4935372;29;20036;-56
2022/09/16 03:51:05;;;;;;;4.70;1.60;;;25.60;99.90;;;;;;4934635;29;20447;-54
2022/09/16 03:53:31;;;;;;;3.03;1.70;;;25.60;99.90;;;;;;4935231;29;20496;-55
2022/09/16 03:55:56;;;;;;;5.85;1.70;;;25.50;99.90;;;;;;4935234;29;20032;-55
2022/09/16 03:58:22;;;;;;;6.22;1.50;;;25.50;99.90;;;;;;4950022;29;20032;-55
2022/09/16 04:00:49;;;;;;;7.25;4.28;;;25.50;99.90;;;;;;4936026;29;20047;-54
2022/09/16 04:03:15;;;;;;;4.20;2.40;;;25.50;99.90;;;;;;4949860;29;20032;-55
2022/09/16 04:05:41;;;;;;;3.92;2.00;;;25.50;99.90;;;;;;4933965;29;20027;-54
2022/09/16 04:08:06;;;;;;;9.32;4.60;;;25.50;99.90;;;;;;4935100;29;20469;-54
2022/09/16 04:10:33;;;;;;;8.68;4.22;;;25.50;99.90;;;;;;4935026;29;20158;-55
2022/09/16 04:12:59;;;;;;;6.97;3.53;;;25.50;99.90;;;;;;4935020;29;20047;-54
2022/09/16 04:15:25;;;;;;;2.78;1.88;;;25.40;99.90;;;;;;4934914;29;20046;-55
2022/09/16 04:17:51;;;;;;;7.53;3.58;;;25.40;99.90;;;;;;4935073;29;20032;-54
2022/09/16 04:20:17;;;;;;;7.93;2.38;;;25.40;99.90;;;;;;4934868;29;20043;-55
2022/09/16 04:22:43;;;;;;;5.35;3.00;;;25.40;99.90;;;;;;4934862;29;20035;-55
2022/09/16 04:25:09;;;;;;;6.13;3.60;;;25.40;99.90;;;;;;4935033;29;20028;-55
2022/09/16 04:27:34;;;;;;;4.13;2.22;;;25.40;99.90;;;;;;4934621;29;20091;-55
2022/09/16 04:30:00;;;;;;;5.30;1.65;;;25.40;99.90;;;;;;4934827;29;20491;-55
2022/09/16 04:32:26;;;;;;;10.50;3.13;;;25.40;99.90;;;;;;4934775;29;20023;-55
2022/09/16 04:34:51;;;;;;;3.70;1.73;;;25.40;99.90;;;;;;4934843;29;20028;-55
2022/09/16 04:37:17;;;;;;;5.57;2.13;;;25.40;99.90;;;;;;4934510;29;20034;-54
2022/09/16 04:39:44;;;;;;;6.70;1.90;;;25.40;99.90;;;;;;4934492;29;20067;-55
2022/09/16 04:42:11;;;;;;;4.55;1.88;;;25.40;99.90;;;;;;4934623;29;20028;-55
2022/09/16 04:44:37;;;;;;;4.72;2.45;;;25.40;99.90;;;;;;4934473;29;20477;-55
2022/09/16 04:47:03;;;;;;;5.57;1.38;;;25.40;99.90;;;;;;4934553;29;20460;-55
2022/09/16 04:49:29;;;;;;;5.70;1.80;;;25.40;99.90;;;;;;4934328;29;20060;-56
2022/09/16 04:51:55;;;;;;;3.05;1.60;;;25.40;99.90;;;;;;4934588;29;20404;-54
2022/09/16 04:54:22;;;;;;;4.25;1.75;;;25.40;99.90;;;;;;4934496;29;20055;-54
2022/09/16 04:56:47;;;;;;;4.90;1.77;;;25.40;99.90;;;;;;4934340;29;20123;-54
2022/09/16 04:59:13;;;;;;;3.80;1.40;;;25.30;99.90;;;;;;4948828;29;20179;-54
2022/09/16 05:01:39;;;;;;;6.18;1.90;;;25.40;99.90;;;;;;4934104;29;20106;-55
2022/09/16 05:04:06;;;;;;;4.97;1.83;;;25.40;99.90;;;;;;4934092;29;20039;-54
2022/09/16 05:06:34;;;;;;;3.80;1.60;;;25.40;99.90;;;;;;4934153;29;20031;-54
2022/09/16 05:09:01;;;;;;;3.63;1.45;;;25.40;99.90;;;;;;4934117;29;20544;-53
2022/09/16 05:11:30;;;;;;;4.87;1.70;;;25.40;99.90;;;;;;4934164;29;20477;-54
2022/09/16 05:14:02;;;;;;;4.70;1.92;;;25.40;99.90;;;;;;4934178;29;20369;-55
2022/09/16 05:16:28;;;;;;;5.25;1.63;;;25.40;99.90;;;;;;4948911;29;20488;-54
2022/09/16 05:19:00;;;;;;;3.92;1.60;;;25.40;99.90;;;;;;4934246;29;20087;-54
2022/09/16 05:21:27;;;;;;;2.63;1.65;;;25.40;99.90;;;;;;4934174;29;20035;-54
2022/09/16 05:23:58;;;;;;;4.15;1.40;;;25.40;99.90;;;;;;4933959;29;20107;-54
2022/09/16 05:26:25;;;;;;;7.93;1.95;;;25.40;99.90;;;;;;4933977;29;20040;-54
2022/09/16 05:28:52;;;;;;;6.53;1.50;;;25.40;99.90;;;;;;4933848;29;20040;-54
2022/09/16 05:31:19;;;;;;;4.53;1.30;;;25.30;99.90;;;;;;4934036;29;20031;-54
2022/09/16 05:33:51;;;;;;;6.85;1.65;;;25.30;99.90;;;;;;4933904;29;20098;-54
2022/09/16 05:36:17;;;;;;;3.70;1.63;;;25.30;99.90;;;;;;4948545;29;20118;-56
2022/09/16 05:38:44;;;;;;;5.20;1.70;;;25.30;99.90;;;;;;4933663;29;20114;-54
2022/09/16 05:41:10;;;;;;;3.60;1.50;;;25.30;99.90;;;;;;4933701;29;20034;-54
2022/09/16 05:43:36;;;;;;;5.53;1.60;;;25.30;99.90;;;;;;4933751;29;20032;-54
2022/09/16 05:46:04;;;;;;;4.90;2.00;;;25.30;99.90;;;;;;4933639;29;20040;-54
2022/09/16 05:48:29;;;;;;;6.78;1.60;;;25.30;99.90;;;;;;4933851;29;20038;-56
2022/09/16 05:50:58;;;;;;;4.93;1.50;;;25.30;99.90;;;;;;4933827;29;20118;-56
2022/09/16 05:53:26;;;;;;;4.70;1.42;;;25.30;99.90;;;;;;4933772;29;20098;-54
2022/09/16 05:55:56;;;;;;;3.53;1.40;;;25.30;99.90;;;;;;4933683;29;20099;-55
2022/09/16 05:58:23;;;;;;;4.75;1.42;;;25.30;99.90;;;;;;4933554;29;20449;-55
2022/09/16 06:00:49;;;;;;;8.27;1.90;;;25.30;99.90;;;;;;4933389;29;20452;-54
2022/09/16 06:03:15;;;;;;;5.43;1.35;;;25.30;99.90;;;;;;4933500;29;20032;-54
2022/09/16 06:05:40;;;;;;;3.92;1.50;;;25.30;99.90;;;;;;4933504;29;20020;-54
2022/09/16 06:08:06;;;;;;;3.97;1.40;;;25.30;99.90;;;;;;4933727;29;20031;-55
2022/09/16 06:10:39;;;;;;;3.05;1.55;;;25.30;99.90;;;;;;4933785;29;20054;-56
2022/09/16 06:13:05;;;;;;;5.65;1.25;;;25.30;99.90;;;;;;4933452;29;20028;-54
2022/09/16 06:15:32;;;;;;;7.63;1.50;;;25.20;99.90;;;;;;4950467;28;20055;-56
2022/09/16 06:17:57;;;;;;;6.60;2.33;;;25.20;99.90;;;;;;4937062;29;20020;-57
2022/09/16 06:20:24;;;;;;;5.13;1.60;;;25.20;99.90;;;;;;4936759;29;20044;-54
2022/09/16 06:22:49;;;;;;;3.88;1.40;;;25.20;99.90;;;;;;4936843;29;20028;-54
2022/09/16 06:25:15;;;;;;;3.13;1.13;;;25.30;99.90;;;;;;4936757;29;20497;-54
2022/09/16 06:27:41;;;;;;;4.82;1.52;;;25.30;99.90;;;;;;4936733;29;20031;-54
2022/09/16 06:30:07;;;;;;;4.15;1.38;;;25.30;99.90;;;;;;4936644;29;20165;-55
2022/09/16 06:32:33;;;;;;;7.75;1.70;;;25.30;99.90;;;;;;4936935;29;20020;-55
2022/09/16 06:34:59;;;;;;;3.50;1.30;;;25.30;99.90;;;;;;4936792;29;20039;-54
2022/09/16 06:37:25;;;;;;;8.73;2.83;;;25.30;99.90;;;;;;4951144;29;20035;-55
2022/09/16 06:39:51;;;;;;;9.52;2.50;;;25.30;99.90;;;;;;4936503;29;20123;-55
2022/09/16 06:42:17;;;;;;;7.15;1.88;;;25.30;99.90;;;;;;4936588;29;20102;-55
2022/09/16 06:44:42;;;;;;;8.43;1.83;;;25.30;99.90;;;;;;4936447;29;20476;-55
2022/09/16 06:47:08;;;;;;;6.05;1.60;;;25.30;99.90;;;;;;4936521;29;20032;-54
2022/09/16 06:49:34;;;;;;;1.95;1.08;;;25.30;99.90;;;;;;4936528;29;20046;-54
2022/09/16 06:52:00;;;;;;;9.30;3.30;;;25.30;99.90;;;;;;4936369;29;20028;-54
2022/09/16 06:54:26;;;;;;;8.93;1.95;;;25.30;99.90;;;;;;4936378;29;20377;-54
2022/09/16 06:56:52;;;;;;;8.70;1.73;;;25.40;99.90;;;;;;4936012;29;20032;-55
2022/09/16 06:59:17;;;;;;;3.67;1.40;;;25.40;99.90;;;;;;4936138;29;20361;-55
2022/09/16 07:01:43;;;;;;;5.35;1.25;;;25.50;99.90;;;;;;4935867;29;20071;-54
2022/09/16 07:04:12;;;;;;;6.97;1.70;;;25.50;99.90;;;;;;4936025;29;20059;-55
2022/09/16 07:06:38;;;;;;;4.57;1.10;;;25.50;99.90;;;;;;4936242;29;20115;-55
2022/09/16 07:09:04;;;;;;;2.42;1.02;;;25.60;99.90;;;;;;4936269;29;20036;-55
2022/09/16 07:11:31;;;;;;;3.72;1.63;;;25.60;99.90;;;;;;4935884;29;20445;-54
2022/09/16 07:13:59;;;;;;;5.85;2.28;;;25.60;99.90;;;;;;4935971;29;20036;-55
2022/09/16 07:16:25;;;;;;;7.90;1.63;;;25.60;99.90;;;;;;4935867;29;20032;-54
2022/09/16 07:18:56;;;;;;;5.75;1.40;;;25.70;99.90;;;;;;4935575;29;20035;-54
2022/09/16 07:21:27;;;;;;;6.13;1.40;;;25.70;99.90;;;;;;4935562;29;20031;-55
2022/09/16 07:23:55;;;;;;;5.18;1.45;;;25.70;99.90;;;;;;4935601;29;20191;-55
2022/09/16 07:26:25;;;;;;;3.70;1.58;;;25.80;99.90;;;;;;4932925;29;20032;-54
2022/09/16 07:28:52;;;;;;;8.98;1.77;;;25.80;99.90;;;;;;4935509;29;20035;-54
2022/09/16 07:31:24;;;;;;;7.88;2.10;;;25.80;99.90;;;;;;4935293;29;20028;-54
2022/09/16 07:33:51;;;;;;;3.97;1.55;;;25.90;99.90;;;;;;4935115;29;20028;-55
2022/09/16 07:36:19;;;;;;;3.72;1.55;;;25.90;99.90;;;;;;4935309;29;20030;-55
2022/09/16 07:38:46;;;;;;;8.35;1.40;;;26.00;99.90;;;;;;4934944;29;20302;-54
2022/09/16 07:41:17;;;;;;;8.57;1.60;;;26.00;99.90;;;;;;4935288;29;20024;-54
2022/09/16 07:43:44;;;;;;;6.05;2.72;;;26.00;99.90;;;;;;4935158;29;20031;-55
2022/09/16 07:46:11;;;;;;;6.97;2.10;;;26.10;99.90;;;;;;4935073;29;20048;-54
2022/09/16 07:48:38;;;;;;;8.27;2.33;;;26.10;99.90;;;;;;4935275;29;20027;-55
2022/09/16 07:51:09;;;;;;;3.35;1.30;;;26.20;99.90;;;;;;4935139;29;20027;-55
2022/09/16 07:53:36;;;;;;;3.10;1.50;;;26.20;99.90;;;;;;4935275;29;20459;-55
2022/09/16 07:56:08;;;;;;;3.17;1.55;;;26.30;99.90;;;;;;4935085;29;20032;-54
2022/09/16 07:58:34;;;;;;;4.90;1.67;;;26.30;99.90;;;;;;4935096;29;20107;-54
2022/09/16 08:01:01;;;;;;;10.65;4.28;;;26.40;99.90;;;;;;4934833;29;20062;-55
2022/09/16 08:03:27;;;;;;;6.82;3.92;;;26.40;99.90;;;;;;4935046;29;20115;-54
2022/09/16 08:06:09;;;;;;;4.13;2.05;;;26.50;99.90;;;;;;4934800;29;20114;-55
2022/09/16 08:08:35;;;;;;;5.85;1.70;;;26.50;99.90;;;;;;4934939;29;20062;-55
2022/09/16 08:11:01;;;;;;;5.10;1.70;;;26.60;99.90;;;;;;4934889;29;20055;-54
2022/09/16 08:13:29;;;;;;;4.90;2.03;;;26.60;99.90;;;;;;4934674;29;20039;-54
2022/09/16 08:15:59;;;;;;;5.22;2.17;;;26.60;99.90;;;;;;4933446;29;20054;-55
2022/09/16 08:18:25;;;;;;;4.45;1.63;;;26.60;99.90;;;;;;4934642;29;20039;-54
2022/09/16 08:20:51;;;;;;;3.50;1.40;;;26.60;99.90;;;;;;4934563;29;20488;-55
2022/09/16 08:23:17;;;;;;;3.92;1.55;;;26.60;99.90;;;;;;4934546;29;20533;-54
2022/09/16 08:25:44;;;;;;;4.97;1.50;;;26.60;99.90;;;;;;4934644;29;20118;-54
2022/09/16 08:28:16;;;;;;;9.02;2.30;;;26.50;99.90;;;;;;4933499;29;20376;-54
2022/09/16 08:30:42;;;;;;;5.75;2.72;;;26.50;99.90;;;;;;4934405;29;20032;-54
2022/09/16 08:33:08;;;;;;;3.38;1.58;;;26.50;99.90;;;;;;4934648;29;20468;-55
2022/09/16 08:35:35;;;;;;;3.75;1.58;;;26.50;99.90;;;;;;4934297;29;20034;-55
2022/09/16 08:38:01;;;;;;;6.13;2.45;;;26.50;99.90;;;;;;4933925;29;20027;-54
2022/09/16 08:40:32;;;;;;;5.30;2.40;;;26.50;99.90;;;;;;4933002;29;20447;-55
2022/09/16 08:43:14;;;;;;;4.53;1.90;;;26.50;99.90;;;;;;4934364;29;20027;-54
2022/09/16 08:45:54;;;;;;;5.72;2.00;;;26.50;99.90;;;;;;4934311;29;20032;-53
2022/09/16 08:48:41;;;;;;;5.38;1.88;;;26.60;99.90;;;;;;4932861;29;20353;-54
2022/09/16 08:51:11;;;;;;;5.10;1.65;;;26.60;99.90;;;;;;4934314;29;20019;-54
2022/09/16 08:54:02;;;;;;;5.30;1.90;;;26.60;99.90;;;;;;4934289;29;20067;-54
2022/09/16 08:56:33;;;;;;;9.38;2.03;;;26.60;99.90;;;;;;4934163;29;20103;-54
2022/09/16 08:59:00;;;;;;;3.45;1.25;;;26.60;99.90;;;;;;4933946;29;20039;-54
2022/09/16 09:01:43;;;;;;;3.08;1.10;;;26.50;99.90;;;;;;4933707;29;20519;-54
2022/09/16 09:04:11;;;;;;;2.35;1.40;;;26.60;99.90;;;;;;4934134;29;20020;-54
2022/09/16 09:07:15;;;;;;;3.80;1.15;;;26.60;99.90;;;;;;4933916;29;20051;-54
2022/09/16 09:10:17;;;;;;;7.80;3.17;;;26.70;99.90;;;;;;4934375;29;20384;-55
2022/09/16 09:12:57;;;;;;;5.05;1.48;;;26.70;99.90;;;;;;4934241;29;20063;-54
2022/09/16 09:15:32;;;;;;;3.00;1.25;;;26.80;99.90;;;;;;4933798;29;20611;-54
2022/09/16 09:18:23;;;;;;;7.03;1.48;;;26.90;99.90;;;;;;4933704;29;20083;-54
2022/09/16 09:21:03;;;;;;;3.22;1.60;;;26.90;99.90;;;;;;4933835;29;20049;-54
2022/09/16 09:23:39;;;;;;;4.10;1.50;;;27.00;99.90;;;;;;4933690;29;20035;-54
2022/09/16 09:26:12;;;;;;;4.18;1.40;;;27.00;99.90;;;;;;4933633;29;20650;-54
2022/09/16 09:28:38;;;;;;;5.00;1.30;;;27.10;99.90;;;;;;4933719;29;20400;-54
2022/09/16 09:31:39;;;;;;;6.15;1.73;;;27.20;99.90;;;;;;4932632;29;20065;-54
2022/09/16 09:34:16;;;;;;;7.53;1.38;;;27.20;99.90;;;;;;4933805;29;20039;-54
2022/09/16 09:37:08;;;;;;;4.88;1.70;;;27.30;99.90;;;;;;4934069;29;20027;-54
2022/09/16 09:40:05;;;;;;;2.78;1.50;;;27.30;99.90;;;;;;4914297;29;20388;-54
2022/09/16 09:42:42;;;;;;;4.38;1.67;;;27.30;99.90;;;;;;4933607;29;20036;-54
2022/09/16 09:45:30;;;;;;;2.15;1.33;;;27.40;99.90;;;;;;4933701;29;20385;-55
2022/09/16 09:47:57;;;;;;;3.92;1.60;;;27.40;99.90;;;;;;4933612;29;20084;-54
2022/09/16 09:50:43;;;;;;;5.00;2.15;;;27.40;99.90;;;;;;4935770;29;20063;-54
2022/09/16 09:53:16;;;;;;;3.15;1.40;;;27.50;99.90;;;;;;4937232;29;20052;-54
2022/09/16 09:55:42;;;;;;;4.78;1.52;;;27.50;99.90;;;;;;4937449;29;20032;-54
2022/09/16 09:58:45;;;;;;;4.10;1.80;;;27.50;99.90;;;;;;4937137;29;20531;-54
2022/09/16 10:01:11;;;;;;;4.03;1.77;;;27.50;99.90;;;;;;4936997;29;20054;-54
2022/09/16 10:03:39;;;;;;;13.35;7.28;;;27.60;99.90;;;;;;4937092;29;20027;-54
2022/09/16 10:06:05;;;;;;;;;;;27.50;99.90;;;;;;4937448;29;20034;-55
2022/09/16 10:08:49;;;;;;;5.88;2.60;;;27.60;99.90;;;;;;4937055;29;19989;-55
2022/09/16 10:11:21;;;;;;;4.07;1.00;;;27.60;99.90;;;;;;4937328;29;20024;-54
2022/09/16 10:13:56;;;;;;;4.80;1.60;;;27.60;99.90;;;;;;4937178;29;20046;-55
2022/09/16 10:16:31;;;;;;;7.32;1.85;;;27.60;99.90;;;;;;4936978;29;20369;-54
2022/09/16 10:19:04;;;;;;;6.03;2.10;;;27.60;99.90;;;;;;4936726;29;20043;-54
2022/09/16 10:22:08;;;;;;;3.65;1.67;;;27.70;99.90;;;;;;4936868;29;20031;-54
2022/09/16 10:24:37;;;;;;;5.40;1.60;;;27.80;99.90;;;;;;4936756;29;20123;-54
2022/09/16 10:27:21;;;;;;;7.22;2.20;;;27.90;99.90;;;;;;4936612;29;20123;-54
2022/09/16 10:30:01;;;;;;;4.35;1.55;;;27.90;99.90;;;;;;4935962;29;20476;-54
2022/09/16 10:32:27;;;;;;;5.25;1.60;;;27.90;99.90;;;;;;4936778;29;20036;-54
2022/09/16 10:34:53;;;;;;;5.10;1.80;;;27.90;99.90;;;;;;4936406;29;20114;-54
2022/09/16 10:37:19;;;;;;;2.40;1.67;;;28.00;99.90;;;;;;4936927;29;20031;-54
2022/09/16 10:39:55;;;;;;;2.90;1.42;;;28.00;99.90;;;;;;4936924;29;20122;-54
2022/09/16 10:42:26;;;;;;;3.65;1.52;;;28.10;99.90;;;;;;4935399;29;20036;-54
2022/09/16 10:45:02;;;;;;;3.33;1.33;;;28.10;99.90;;;;;;4936472;29;20055;-54
2022/09/16 10:47:31;;;;;;;6.47;3.00;;;28.20;99.90;;;;;;4936354;29;20024;-53
2022/09/16 10:50:03;;;;;;;9.20;4.05;;;28.30;99.90;;;;;;4936455;29;20034;-53
2022/09/16 10:52:48;;;;;;;4.68;4.00;;;28.30;99.90;;;;;;4950922;28;20059;-52
2022/09/16 10:55:36;;;;;;;5.03;2.53;;;28.30;99.90;;;;;;4944610;28;20024;-54
2022/09/16 10:58:16;;;;;;;4.65;2.70;;;28.30;99.90;;;;;;4947557;29;20041;-53
2022/09/16 11:01:06;;;;;;;3.60;2.10;;;28.30;99.90;;;;;;4943851;29;20056;-53
2022/09/16 11:03:59;;;;;;;4.45;1.83;;;28.40;99.90;;;;;;4947081;29;20058;-53
2022/09/16 11:06:53;;;;;;;7.03;1.65;;;28.40;99.90;;;;;;4944171;29;20114;-53
2022/09/16 11:09:30;;;;;;;3.08;1.25;;;28.50;99.90;;;;;;4942503;28;20027;-52
2022/09/16 11:12:21;;;;;;;3.15;1.77;;;28.50;99.90;;;;;;4939145;28;20107;-54
2022/09/16 11:15:07;;;;;;;4.60;2.22;;;28.50;99.90;;;;;;4955141;28;20051;-54
2022/09/16 11:18:11;;;;;;;9.95;4.13;;;28.50;99.90;;;;;;4948550;29;20042;-53
2022/09/16 11:21:03;;;;;;;11.57;7.18;;;28.50;99.90;;;;;;4952460;28;20078;-54
2022/09/16 11:24:22;;;;;;;7.82;4.28;;;28.40;99.90;;;;;;4952501;28;20055;-56
2022/09/16 11:27:14;;;;;;;8.18;5.78;;;28.40;99.90;;;;;;4907894;29;20043;-55
2022/09/16 11:29:58;;;;;;;3.42;2.22;;;28.40;99.90;;;;;;4943231;29;20439;-54
2022/09/16 11:33:01;;;;;;;7.85;1.90;;;28.30;99.90;;;;;;4946390;28;20024;-54
2022/09/16 11:36:05;;;;;;;6.03;1.50;;;28.40;99.90;;;;;;4945777;28;20020;-56
2022/09/16 11:38:38;;;;;;;3.55;1.60;;;28.30;99.90;;;;;;4921889;28;20367;-55
2022/09/16 11:41:09;;;;;;;6.45;2.63;;;28.40;99.90;;;;;;4943336;28;20024;-56
2022/09/16 11:43:51;;;;;;;5.90;1.83;;;28.40;99.90;;;;;;4936938;29;20078;-54
2022/09/16 11:46:28;;;;;;;3.10;1.73;;;28.50;99.90;;;;;;4936994;29;20046;-55
2022/09/16 11:49:04;;;;;;;4.85;2.78;;;28.50;99.90;;;;;;4943099;28;20023;-56
2022/09/16 11:51:44;;;;;;;7.00;2.78;;;28.60;99.90;;;;;;4950915;28;20086;-56
2022/09/16 11:54:28;;;;;;;5.75;2.50;;;28.60;99.90;;;;;;4954458;28;20439;-54
2022/09/16 11:57:03;;;;;;;7.97;4.82;;;28.70;99.90;;;;;;4954651;28;20055;-55
2022/09/16 12:00:08;;;;;;;4.03;3.00;;;28.80;99.90;;;;;;4954133;28;20027;-54
2022/09/16 12:02:48;;;;;;;6.90;2.05;;;28.80;99.90;;;;;;4937041;28;20574;-53
2022/09/16 12:05:34;;;;;;;2.97;1.20;;;28.90;99.90;;;;;;4944230;28;20081;-54
2022/09/16 12:08:24;;;;;;;5.35;2.42;;;28.90;99.90;;;;;;4939218;28;20451;-53
2022/09/16 12:11:31;;;;;;;2.10;1.30;;;28.90;99.90;;;;;;4934659;29;20034;-54
2022/09/16 12:14:23;;;;;;;6.35;2.53;;;28.90;99.90;;;;;;4878054;29;20025;-54
2022/09/16 12:17:03;;;;;;;4.20;1.55;;;29.00;99.90;;;;;;4883506;29;20058;-52
2022/09/16 12:19:47;;;;;;;5.53;3.58;;;29.00;99.90;;;;;;4934878;28;20066;-53
2022/09/16 12:22:43;;;;;;;8.30;5.55;;;29.00;99.90;;;;;;4950483;28;20051;-54
2022/09/16 12:25:22;;;;;;;10.20;3.05;;;29.10;99.90;;;;;;4952376;28;20023;-55
2022/09/16 12:28:04;;;;;;;4.60;3.25;;;29.10;99.90;;;;;;4951449;28;20024;-54
2022/09/16 12:30:41;;;;;;;11.70;8.70;;;29.00;99.90;;;;;;4946043;28;20031;-52
2022/09/16 12:33:19;;;;;;;7.53;5.23;;;29.00;99.90;;;;;;4951932;28;20023;-52
2022/09/16 12:36:02;;;;;;;6.22;3.47;;;28.90;99.90;;;;;;4946160;28;20066;-53
2022/09/16 12:38:28;;;;;;;2.80;1.58;;;28.90;99.90;;;;;;4950268;29;20066;-54
2022/09/16 12:41:13;;;;;;;5.45;2.10;;;28.90;99.90;;;;;;4949656;28;20130;-54
2022/09/16 12:44:16;;;;;;;6.97;4.68;;;28.80;99.90;;;;;;4941334;28;20499;-61
2022/09/16 12:47:26;;;;;;;4.90;1.38;;;28.80;99.90;;;;;;4934996;28;20027;-58
2022/09/16 12:50:22;;;;;;;3.92;2.03;;;28.90;99.90;;;;;;4938432;29;20090;-61
2022/09/16 12:53:38;;;;;;;3.50;1.83;;;28.90;99.90;;;;;;4951442;28;20038;-56
2022/09/16 12:56:37;;;;;;;3.88;2.50;;;28.90;99.90;;;;;;4882241;29;20384;-61
2022/09/16 12:59:10;;;;;;;3.50;1.70;;;28.90;99.90;;;;;;4951810;28;20036;-61
2022/09/16 13:02:17;;;;;;;5.13;3.03;;;29.00;99.90;;;;;;4951439;28;20091;-61
2022/09/16 13:04:47;;;;;;;4.80;1.48;;;29.00;99.90;;;;;;4945448;29;20499;-55
2022/09/16 13:07:36;;;;;;;4.10;1.67;;;29.00;99.90;;;;;;4943515;28;20472;-55
2022/09/16 13:10:19;;;;;;;8.30;1.17;;;28.90;99.90;;;;;;4948355;29;20403;-63
2022/09/16 13:12:57;;;;;;;6.93;1.60;;;28.90;99.90;;;;;;4937875;28;20035;-61
2022/09/16 13:15:34;;;;;;;6.43;1.80;;;28.90;99.90;;;;;;4948315;29;20031;-60
2022/09/16 13:18:25;;;;;;;8.70;3.58;;;29.00;99.90;;;;;;4939625;29;20023;-59
2022/09/16 13:21:00;;;;;;;5.50;3.85;;;28.90;99.90;;;;;;4944925;28;20039;-60
2022/09/16 13:23:32;;;;;;;8.73;4.60;;;29.00;99.90;;;;;;4934320;28;20032;-59
2022/09/16 13:26:05;;;;;;;4.80;2.08;;;29.00;99.90;;;;;;4946614;28;20029;-52